sensor_id;sensor_type;location;lat;lon;timestamp;pressure;altitude;pressure_sealevel;temperature;humidity
59650;BME280;46162;57.568;25.814;2023-03-25T00:00:57;98653.53;;;5.33;100.00
59650;BME280;46162;57.568;25.814;2023-03-25T00:03:27;98657.59;;;5.29;100.00
59650;BME280;46162;57.568;25.814;2023-03-25T00:05:56;98652.72;;;5.25;100.00
59650;BME280;46162;57.568;25.814;2023-03-25T00:08:25;98656.56;;;5.22;100.00
59650;BME280;46162;57.568;25.814;2023-03-25T00:10:58;98654.22;;;5.19;100.00
59650;BME280;46162;57.568;25.814;2023-03-25T00:13:29;98656.72;;;5.21;100.00
59650;BME280;46162;57.568;25.814;2023-03-25T00:15:59;98652.22;;;5.21;100.00
59650;BME280;46162;57.568;25.814;2023-03-25T00:18:30;98654.88;;;5.21;100.00
59650;BME280;46162;57.568;25.814;2023-03-25T00:21:01;98648.88;;;5.19;100.00
59650;BME280;46162;57.568;25.814;2023-03-25T00:23:30;98652.06;;;5.14;100.00
59650;BME280;46162;57.568;25.814;2023-03-25T00:25:59;98654.91;;;5.13;100.00
59650;BME280;46162;57.568;25.814;2023-03-25T00:28:32;98647.03;;;5.11;100.00
59650;BME280;46162;57.568;25.814;2023-03-25T00:31:03;98650.91;;;5.17;100.00
59650;BME280;46162;57.568;25.814;2023-03-25T00:33:32;98654.38;;;5.26;100.00
59650;BME280;46162;57.568;25.814;2023-03-25T00:36:01;98645.19;;;5.20;100.00
59650;BME280;46162;57.568;25.814;2023-03-25T00:38:33;98638.53;;;5.24;100.00
59650;BME280;46162;57.568;25.814;2023-03-25T00:41:09;98641.19;;;5.24;100.00
59650;BME280;46162;57.568;25.814;2023-03-25T00:43:39;98639.03;;;5.20;100.00
59650;BME280;46162;57.568;25.814;2023-03-25T00:46:08;98648.38;;;5.15;100.00
59650;BME280;46162;57.568;25.814;2023-03-25T00:48:37;98648.72;;;5.12;100.00
59650;BME280;46162;57.568;25.814;2023-03-25T00:51:06;98665.94;;;5.10;100.00
59650;BME280;46162;57.568;25.814;2023-03-25T00:53:36;98659.09;;;5.07;100.00
59650;BME280;46162;57.568;25.814;2023-03-25T00:56:06;98654.91;;;5.05;100.00
59650;BME280;46162;57.568;25.814;2023-03-25T00:58:34;98662.94;;;5.05;100.00
59650;BME280;46162;57.568;25.814;2023-03-25T01:01:10;98660.22;;;4.96;100.00
59650;BME280;46162;57.568;25.814;2023-03-25T01:03:39;98674.09;;;4.92;100.00
59650;BME280;46162;57.568;25.814;2023-03-25T01:06:11;98656.53;;;4.89;100.00
59650;BME280;46162;57.568;25.814;2023-03-25T01:08:40;98651.53;;;4.94;100.00
59650;BME280;46162;57.568;25.814;2023-03-25T01:11:17;98659.06;;;4.99;100.00
59650;BME280;46162;57.568;25.814;2023-03-25T01:13:48;98657.25;;;5.00;100.00
59650;BME280;46162;57.568;25.814;2023-03-25T01:16:18;98661.22;;;5.04;100.00
59650;BME280;46162;57.568;25.814;2023-03-25T01:18:47;98644.38;;;4.95;100.00
59650;BME280;46162;57.568;25.814;2023-03-25T01:21:17;98661.25;;;4.95;100.00
59650;BME280;46162;57.568;25.814;2023-03-25T01:23:45;98658.56;;;4.95;100.00
59650;BME280;46162;57.568;25.814;2023-03-25T01:26:14;98655.56;;;4.90;100.00
59650;BME280;46162;57.568;25.814;2023-03-25T01:28:44;98655.22;;;4.85;100.00
59650;BME280;46162;57.568;25.814;2023-03-25T01:31:13;98654.88;;;4.80;100.00
59650;BME280;46162;57.568;25.814;2023-03-25T01:33:44;98657.22;;;4.75;100.00
59650;BME280;46162;57.568;25.814;2023-03-25T01:36:12;98657.16;;;4.67;100.00
59650;BME280;46162;57.568;25.814;2023-03-25T01:38:41;98656.88;;;4.70;100.00
59650;BME280;46162;57.568;25.814;2023-03-25T01:41:10;98649.69;;;4.70;100.00
59650;BME280;46162;57.568;25.814;2023-03-25T01:43:38;98659.53;;;4.70;100.00
59650;BME280;46162;57.568;25.814;2023-03-25T01:46:10;98654.69;;;4.73;100.00
59650;BME280;46162;57.568;25.814;2023-03-25T01:48:44;98656.34;;;4.74;100.00
59650;BME280;46162;57.568;25.814;2023-03-25T01:51:19;98655.84;;;4.71;100.00
59650;BME280;46162;57.568;25.814;2023-03-25T01:53:50;98655.16;;;4.61;100.00
59650;BME280;46162;57.568;25.814;2023-03-25T01:56:23;98660.16;;;4.56;100.00
59650;BME280;46162;57.568;25.814;2023-03-25T01:58:54;98659.81;;;4.50;100.00
59650;BME280;46162;57.568;25.814;2023-03-25T02:01:23;98661.81;;;4.48;100.00
59650;BME280;46162;57.568;25.814;2023-03-25T02:03:55;98655.63;;;4.48;100.00
59650;BME280;46162;57.568;25.814;2023-03-25T02:06:39;98659.97;;;4.41;100.00
59650;BME280;46162;57.568;25.814;2023-03-25T02:09:12;98645.09;;;4.38;100.00
59650;BME280;46162;57.568;25.814;2023-03-25T02:11:42;98645.38;;;4.35;100.00
59650;BME280;46162;57.568;25.814;2023-03-25T02:14:13;98651.06;;;4.32;100.00
59650;BME280;46162;57.568;25.814;2023-03-25T02:16:47;98650.09;;;4.33;100.00
59650;BME280;46162;57.568;25.814;2023-03-25T02:19:51;98653.91;;;4.30;100.00
59650;BME280;46162;57.568;25.814;2023-03-25T02:26:03;98644.75;;;4.33;100.00
59650;BME280;46162;57.568;25.814;2023-03-25T02:28:42;98642.38;;;4.30;100.00
59650;BME280;46162;57.568;25.814;2023-03-25T02:31:30;98653.38;;;4.27;100.00
59650;BME280;46162;57.568;25.814;2023-03-25T02:37:31;98652.53;;;4.18;100.00
59650;BME280;46162;57.568;25.814;2023-03-25T02:40:06;98659.69;;;4.18;100.00
59650;BME280;46162;57.568;25.814;2023-03-25T02:42:39;98667.34;;;4.13;100.00
59650;BME280;46162;57.568;25.814;2023-03-25T02:45:15;98665.19;;;4.08;100.00
59650;BME280;46162;57.568;25.814;2023-03-25T02:47:49;98671.03;;;4.12;100.00
59650;BME280;46162;57.568;25.814;2023-03-25T02:50:24;98664.03;;;4.11;100.00
59650;BME280;46162;57.568;25.814;2023-03-25T02:52:57;98666.50;;;4.12;100.00
59650;BME280;46162;57.568;25.814;2023-03-25T02:55:30;98668.97;;;4.05;100.00
59650;BME280;46162;57.568;25.814;2023-03-25T02:58:01;98669.31;;;4.02;100.00
59650;BME280;46162;57.568;25.814;2023-03-25T03:00:33;98668.84;;;4.07;100.00
59650;BME280;46162;57.568;25.814;2023-03-25T03:03:06;98666.28;;;3.97;100.00
59650;BME280;46162;57.568;25.814;2023-03-25T03:05:37;98662.44;;;4.00;100.00
59650;BME280;46162;57.568;25.814;2023-03-25T03:08:20;98662.91;;;3.95;100.00
59650;BME280;46162;57.568;25.814;2023-03-25T03:11:00;98666.59;;;3.94;100.00
59650;BME280;46162;57.568;25.814;2023-03-25T03:13:40;98664.09;;;3.93;100.00
59650;BME280;46162;57.568;25.814;2023-03-25T03:16:20;98669.75;;;3.90;100.00
59650;BME280;46162;57.568;25.814;2023-03-25T03:18:58;98660.91;;;3.89;100.00
59650;BME280;46162;57.568;25.814;2023-03-25T03:21:36;98653.72;;;3.90;100.00
59650;BME280;46162;57.568;25.814;2023-03-25T03:24:12;98660.72;;;3.91;100.00
59650;BME280;46162;57.568;25.814;2023-03-25T03:26:47;98656.41;;;3.90;100.00
59650;BME280;46162;57.568;25.814;2023-03-25T03:29:24;98659.22;;;3.88;100.00
59650;BME280;46162;57.568;25.814;2023-03-25T03:31:57;98660.59;;;3.92;100.00
59650;BME280;46162;57.568;25.814;2023-03-25T03:34:37;98657.75;;;3.94;100.00
59650;BME280;46162;57.568;25.814;2023-03-25T03:39:42;98661.72;;;3.90;100.00
59650;BME280;46162;57.568;25.814;2023-03-25T03:42:18;98658.25;;;3.97;100.00
59650;BME280;46162;57.568;25.814;2023-03-25T03:44:50;98668.47;;;4.02;100.00
59650;BME280;46162;57.568;25.814;2023-03-25T03:47:24;98663.28;;;4.00;100.00
59650;BME280;46162;57.568;25.814;2023-03-25T03:49:57;98661.63;;;3.99;100.00
59650;BME280;46162;57.568;25.814;2023-03-25T03:52:30;98658.47;;;4.04;100.00
59650;BME280;46162;57.568;25.814;2023-03-25T03:55:03;98654.78;;;4.05;100.00
59650;BME280;46162;57.568;25.814;2023-03-25T03:57:41;98656.31;;;4.07;100.00
59650;BME280;46162;57.568;25.814;2023-03-25T04:00:16;98659.31;;;4.04;100.00
59650;BME280;46162;57.568;25.814;2023-03-25T04:02:48;98651.94;;;3.98;100.00
59650;BME280;46162;57.568;25.814;2023-03-25T04:05:22;98646.41;;;3.92;100.00
59650;BME280;46162;57.568;25.814;2023-03-25T04:08:01;98647.22;;;3.92;100.00
59650;BME280;46162;57.568;25.814;2023-03-25T04:10:41;98648.91;;;3.93;100.00
59650;BME280;46162;57.568;25.814;2023-03-25T04:13:26;98641.75;;;3.94;100.00
59650;BME280;46162;57.568;25.814;2023-03-25T04:15:56;98644.94;;;4.05;100.00
59650;BME280;46162;57.568;25.814;2023-03-25T04:18:27;98644.13;;;4.05;100.00
59650;BME280;46162;57.568;25.814;2023-03-25T04:21:00;98645.28;;;4.02;100.00
59650;BME280;46162;57.568;25.814;2023-03-25T04:23:29;98639.94;;;4.02;100.00
59650;BME280;46162;57.568;25.814;2023-03-25T04:26:01;98648.28;;;4.07;100.00
59650;BME280;46162;57.568;25.814;2023-03-25T04:28:35;98650.81;;;4.09;100.00
59650;BME280;46162;57.568;25.814;2023-03-25T04:31:10;98643.31;;;4.13;100.00
59650;BME280;46162;57.568;25.814;2023-03-25T04:33:42;98649.66;;;4.12;100.00
59650;BME280;46162;57.568;25.814;2023-03-25T04:36:16;98638.78;;;4.05;100.00
59650;BME280;46162;57.568;25.814;2023-03-25T04:38:46;98637.94;;;4.04;100.00
59650;BME280;46162;57.568;25.814;2023-03-25T04:41:15;98650.28;;;4.05;100.00
59650;BME280;46162;57.568;25.814;2023-03-25T04:43:45;98651.66;;;4.09;100.00
59650;BME280;46162;57.568;25.814;2023-03-25T04:46:18;98644.00;;;4.15;100.00
59650;BME280;46162;57.568;25.814;2023-03-25T04:48:47;98654.03;;;4.21;100.00
59650;BME280;46162;57.568;25.814;2023-03-25T04:51:16;98657.22;;;4.24;100.00
59650;BME280;46162;57.568;25.814;2023-03-25T04:53:46;98660.41;;;4.28;100.00
59650;BME280;46162;57.568;25.814;2023-03-25T04:56:18;98664.06;;;4.27;100.00
59650;BME280;46162;57.568;25.814;2023-03-25T04:58:49;98673.09;;;4.26;100.00
59650;BME280;46162;57.568;25.814;2023-03-25T05:01:21;98663.75;;;4.30;100.00
59650;BME280;46162;57.568;25.814;2023-03-25T05:03:58;98665.75;;;4.28;100.00
59650;BME280;46162;57.568;25.814;2023-03-25T05:06:33;98672.44;;;4.32;100.00
59650;BME280;46162;57.568;25.814;2023-03-25T05:09:04;98672.44;;;4.32;100.00
59650;BME280;46162;57.568;25.814;2023-03-25T05:11:33;98674.44;;;4.30;100.00
59650;BME280;46162;57.568;25.814;2023-03-25T05:14:05;98682.28;;;4.31;100.00
59650;BME280;46162;57.568;25.814;2023-03-25T05:16:34;98671.59;;;4.31;100.00
59650;BME280;46162;57.568;25.814;2023-03-25T05:19:04;98663.09;;;4.36;100.00
59650;BME280;46162;57.568;25.814;2023-03-25T05:21:33;98677.44;;;4.35;100.00
59650;BME280;46162;57.568;25.814;2023-03-25T05:24:08;98683.47;;;4.37;100.00
59650;BME280;46162;57.568;25.814;2023-03-25T05:26:38;98687.00;;;4.38;100.00
59650;BME280;46162;57.568;25.814;2023-03-25T05:29:10;98686.16;;;4.37;100.00
59650;BME280;46162;57.568;25.814;2023-03-25T05:31:44;98686.81;;;4.39;100.00
59650;BME280;46162;57.568;25.814;2023-03-25T05:34:17;98685.50;;;4.43;100.00
59650;BME280;46162;57.568;25.814;2023-03-25T05:36:47;98685.50;;;4.43;100.00
59650;BME280;46162;57.568;25.814;2023-03-25T05:39:16;98688.34;;;4.42;100.00
59650;BME280;46162;57.568;25.814;2023-03-25T05:41:45;98692.19;;;4.47;100.00
59650;BME280;46162;57.568;25.814;2023-03-25T05:44:21;98704.91;;;4.45;100.00
59650;BME280;46162;57.568;25.814;2023-03-25T05:46:52;98703.53;;;4.41;100.00
59650;BME280;46162;57.568;25.814;2023-03-25T05:49:22;98709.88;;;4.40;100.00
59650;BME280;46162;57.568;25.814;2023-03-25T05:51:53;98718.56;;;4.42;100.00
59650;BME280;46162;57.568;25.814;2023-03-25T05:54:22;98724.59;;;4.44;100.00
59650;BME280;46162;57.568;25.814;2023-03-25T05:56:54;98728.25;;;4.43;100.00
59650;BME280;46162;57.568;25.814;2023-03-25T05:59:25;98735.28;;;4.44;100.00
59650;BME280;46162;57.568;25.814;2023-03-25T06:02:52;98735.28;;;4.44;100.00
59650;BME280;46162;57.568;25.814;2023-03-25T06:05:21;98739.63;;;4.45;100.00
59650;BME280;46162;57.568;25.814;2023-03-25T06:07:50;98738.63;;;4.46;100.00
59650;BME280;46162;57.568;25.814;2023-03-25T06:10:25;98727.31;;;4.52;100.00
59650;BME280;46162;57.568;25.814;2023-03-25T06:12:57;98731.09;;;4.50;100.00
59650;BME280;46162;57.568;25.814;2023-03-25T06:15:30;98738.00;;;4.52;100.00
59650;BME280;46162;57.568;25.814;2023-03-25T06:18:05;98740.00;;;4.50;100.00
59650;BME280;46162;57.568;25.814;2023-03-25T06:20:36;98740.50;;;4.54;100.00
59650;BME280;46162;57.568;25.814;2023-03-25T06:23:05;98737.13;;;4.52;100.00
59650;BME280;46162;57.568;25.814;2023-03-25T06:25:34;98738.00;;;4.52;100.00
59650;BME280;46162;57.568;25.814;2023-03-25T06:28:03;98730.97;;;4.51;100.00
59650;BME280;46162;57.568;25.814;2023-03-25T06:30:34;98736.16;;;4.53;100.00
59650;BME280;46162;57.568;25.814;2023-03-25T06:33:05;98740.34;;;4.56;100.00
59650;BME280;46162;57.568;25.814;2023-03-25T06:35:37;98737.34;;;4.59;100.00
59650;BME280;46162;57.568;25.814;2023-03-25T06:38:06;98748.53;;;4.62;100.00
59650;BME280;46162;57.568;25.814;2023-03-25T06:40:56;98743.88;;;4.64;100.00
59650;BME280;46162;57.568;25.814;2023-03-25T06:43:31;98735.69;;;4.66;100.00
59650;BME280;46162;57.568;25.814;2023-03-25T06:46:25;98750.44;;;4.70;100.00
59650;BME280;46162;57.568;25.814;2023-03-25T06:49:15;98744.41;;;4.76;100.00
59650;BME280;46162;57.568;25.814;2023-03-25T06:51:45;98760.44;;;4.76;100.00
59650;BME280;46162;57.568;25.814;2023-03-25T06:54:14;98758.28;;;4.80;100.00
59650;BME280;46162;57.568;25.814;2023-03-25T06:56:47;98767.16;;;4.80;100.00
59650;BME280;46162;57.568;25.814;2023-03-25T06:59:16;98762.66;;;4.81;100.00
59650;BME280;46162;57.568;25.814;2023-03-25T07:01:47;98775.19;;;4.80;100.00
59650;BME280;46162;57.568;25.814;2023-03-25T07:04:15;98788.84;;;4.77;100.00
59650;BME280;46162;57.568;25.814;2023-03-25T07:06:52;98803.22;;;4.76;100.00
59650;BME280;46162;57.568;25.814;2023-03-25T07:09:23;98803.22;;;4.76;100.00
59650;BME280;46162;57.568;25.814;2023-03-25T07:11:52;98807.56;;;4.77;100.00
59650;BME280;46162;57.568;25.814;2023-03-25T07:14:21;98808.44;;;4.78;100.00
59650;BME280;46162;57.568;25.814;2023-03-25T07:16:53;98806.72;;;4.77;100.00
59650;BME280;46162;57.568;25.814;2023-03-25T07:19:22;98810.09;;;4.79;100.00
59650;BME280;46162;57.568;25.814;2023-03-25T07:21:56;98822.63;;;4.78;100.00
59650;BME280;46162;57.568;25.814;2023-03-25T07:24:31;98819.78;;;4.80;100.00
59650;BME280;46162;57.568;25.814;2023-03-25T07:26:59;98823.31;;;4.80;100.00
59650;BME280;46162;57.568;25.814;2023-03-25T07:29:30;98831.34;;;4.80;100.00
59650;BME280;46162;57.568;25.814;2023-03-25T07:32:00;98819.63;;;4.81;100.00
59650;BME280;46162;57.568;25.814;2023-03-25T07:34:32;98809.94;;;4.80;100.00
59650;BME280;46162;57.568;25.814;2023-03-25T07:37:02;98834.97;;;4.79;100.00
59650;BME280;46162;57.568;25.814;2023-03-25T07:39:31;98836.00;;;4.78;100.00
59650;BME280;46162;57.568;25.814;2023-03-25T07:42:00;98842.03;;;4.80;100.00
59650;BME280;46162;57.568;25.814;2023-03-25T07:44:49;98847.38;;;4.80;100.00
59650;BME280;46162;57.568;25.814;2023-03-25T07:47:23;98856.22;;;4.81;100.00
59650;BME280;46162;57.568;25.814;2023-03-25T07:49:52;98857.19;;;4.80;100.00
59650;BME280;46162;57.568;25.814;2023-03-25T07:52:21;98861.72;;;4.79;100.00
59650;BME280;46162;57.568;25.814;2023-03-25T07:54:50;98850.03;;;4.80;100.00
59650;BME280;46162;57.568;25.814;2023-03-25T07:57:19;98870.75;;;4.78;100.00
59650;BME280;46162;57.568;25.814;2023-03-25T07:59:47;98878.59;;;4.80;100.00
59650;BME280;46162;57.568;25.814;2023-03-25T08:02:16;98878.09;;;4.76;100.00
59650;BME280;46162;57.568;25.814;2023-03-25T08:04:47;98879.09;;;4.75;100.00
59650;BME280;46162;57.568;25.814;2023-03-25T08:07:16;98884.25;;;4.77;100.00
59650;BME280;46162;57.568;25.814;2023-03-25T08:09:45;98889.63;;;4.77;100.00
59650;BME280;46162;57.568;25.814;2023-03-25T08:12:14;98898.09;;;4.72;100.00
59650;BME280;46162;57.568;25.814;2023-03-25T08:14:42;98895.78;;;4.77;100.00
59650;BME280;46162;57.568;25.814;2023-03-25T08:17:11;98905.19;;;4.81;100.00
59650;BME280;46162;57.568;25.814;2023-03-25T08:19:42;98911.84;;;4.77;100.00
59650;BME280;46162;57.568;25.814;2023-03-25T08:22:13;98926.91;;;4.78;100.00
59650;BME280;46162;57.568;25.814;2023-03-25T08:24:42;98922.22;;;4.80;100.00
59650;BME280;46162;57.568;25.814;2023-03-25T08:27:11;98921.44;;;4.88;100.00
59650;BME280;46162;57.568;25.814;2023-03-25T08:29:42;98925.78;;;4.89;100.00
59650;BME280;46162;57.568;25.814;2023-03-25T08:32:13;98927.59;;;4.80;100.00
59650;BME280;46162;57.568;25.814;2023-03-25T08:34:41;98932.28;;;4.86;100.00
59650;BME280;46162;57.568;25.814;2023-03-25T08:37:10;98928.09;;;4.84;100.00
59650;BME280;46162;57.568;25.814;2023-03-25T08:39:41;98945.31;;;4.89;100.00
59650;BME280;46162;57.568;25.814;2023-03-25T08:42:11;98945.41;;;4.98;100.00
59650;BME280;46162;57.568;25.814;2023-03-25T08:44:40;98946.56;;;4.95;100.00
59650;BME280;46162;57.568;25.814;2023-03-25T08:47:09;98955.56;;;4.94;100.00
59650;BME280;46162;57.568;25.814;2023-03-25T08:49:38;98947.84;;;4.91;100.00
59650;BME280;46162;57.568;25.814;2023-03-25T08:52:07;98956.09;;;4.98;100.00
59650;BME280;46162;57.568;25.814;2023-03-25T08:54:36;98957.97;;;5.05;100.00
59650;BME280;46162;57.568;25.814;2023-03-25T08:57:07;98973.38;;;5.11;100.00
59650;BME280;46162;57.568;25.814;2023-03-25T08:59:36;98977.06;;;5.10;100.00
59650;BME280;46162;57.568;25.814;2023-03-25T09:02:09;98991.59;;;5.08;100.00
59650;BME280;46162;57.568;25.814;2023-03-25T09:04:40;98991.13;;;5.12;100.00
59650;BME280;46162;57.568;25.814;2023-03-25T09:07:08;99004.91;;;5.34;100.00
59650;BME280;46162;57.568;25.814;2023-03-25T09:09:38;99010.28;;;5.34;100.00
59650;BME280;46162;57.568;25.814;2023-03-25T09:12:09;99002.75;;;5.29;100.00
59650;BME280;46162;57.568;25.814;2023-03-25T09:14:38;99007.41;;;5.27;100.00
59650;BME280;46162;57.568;25.814;2023-03-25T09:17:07;99026.84;;;5.29;100.00
59650;BME280;46162;57.568;25.814;2023-03-25T09:19:37;99018.06;;;5.19;100.00
59650;BME280;46162;57.568;25.814;2023-03-25T09:22:06;99036.63;;;5.21;100.00
59650;BME280;46162;57.568;25.814;2023-03-25T09:24:35;99030.44;;;5.20;100.00
59650;BME280;46162;57.568;25.814;2023-03-25T09:27:04;99044.53;;;5.22;100.00
59650;BME280;46162;57.568;25.814;2023-03-25T09:29:41;99047.56;;;5.27;100.00
59650;BME280;46162;57.568;25.814;2023-03-25T09:32:09;99052.59;;;5.30;100.00
59650;BME280;46162;57.568;25.814;2023-03-25T09:34:38;99055.13;;;5.32;100.00
59650;BME280;46162;57.568;25.814;2023-03-25T09:37:07;99052.44;;;5.32;100.00
59650;BME280;46162;57.568;25.814;2023-03-25T09:39:37;99059.09;;;5.28;100.00
59650;BME280;46162;57.568;25.814;2023-03-25T09:42:28;99067.25;;;5.26;100.00
59650;BME280;46162;57.568;25.814;2023-03-25T09:45:05;99072.84;;;5.33;100.00
59650;BME280;46162;57.568;25.814;2023-03-25T09:47:51;99067.84;;;5.38;100.00
59650;BME280;46162;57.568;25.814;2023-03-25T09:50:23;99069.69;;;5.37;100.00
59650;BME280;46162;57.568;25.814;2023-03-25T09:52:58;99075.38;;;5.34;100.00
59650;BME280;46162;57.568;25.814;2023-03-25T09:55:37;99083.44;;;5.43;100.00
59650;BME280;46162;57.568;25.814;2023-03-25T09:58:26;99090.66;;;5.50;100.00
59650;BME280;46162;57.568;25.814;2023-03-25T10:01:00;99103.59;;;5.55;100.00
59650;BME280;46162;57.568;25.814;2023-03-25T10:03:37;99093.03;;;5.53;100.00
59650;BME280;46162;57.568;25.814;2023-03-25T10:06:16;99094.66;;;5.46;100.00
59650;BME280;46162;57.568;25.814;2023-03-25T10:08:57;99108.72;;;5.48;100.00
59650;BME280;46162;57.568;25.814;2023-03-25T10:11:34;99114.06;;;5.48;100.00
59650;BME280;46162;57.568;25.814;2023-03-25T10:14:08;99111.94;;;5.52;100.00
59650;BME280;46162;57.568;25.814;2023-03-25T10:16:50;99118.28;;;5.51;100.00
59650;BME280;46162;57.568;25.814;2023-03-25T10:19:33;99121.13;;;5.49;100.00
59650;BME280;46162;57.568;25.814;2023-03-25T10:22:08;99128.69;;;5.54;100.00
59650;BME280;46162;57.568;25.814;2023-03-25T10:24:43;99130.03;;;5.84;100.00
59650;BME280;46162;57.568;25.814;2023-03-25T10:27:18;99128.19;;;5.85;100.00
59650;BME280;46162;57.568;25.814;2023-03-25T10:29:56;99140.56;;;5.86;100.00
59650;BME280;46162;57.568;25.814;2023-03-25T10:32:31;99144.22;;;5.76;100.00
59650;BME280;46162;57.568;25.814;2023-03-25T10:35:04;99137.22;;;5.84;100.00
59650;BME280;46162;57.568;25.814;2023-03-25T10:37:36;99146.00;;;5.94;100.00
59650;BME280;46162;57.568;25.814;2023-03-25T10:40:18;99140.00;;;6.00;100.00
59650;BME280;46162;57.568;25.814;2023-03-25T10:42:57;99149.47;;;5.86;100.00
59650;BME280;46162;57.568;25.814;2023-03-25T10:45:27;99146.25;;;5.82;100.00
59650;BME280;46162;57.568;25.814;2023-03-25T10:48:04;99145.56;;;5.80;100.00
59650;BME280;46162;57.568;25.814;2023-03-25T10:50:38;99156.91;;;5.74;100.00
59650;BME280;46162;57.568;25.814;2023-03-25T10:53:13;99162.97;;;5.76;100.00
59650;BME280;46162;57.568;25.814;2023-03-25T10:55:48;99159.13;;;5.79;100.00
59650;BME280;46162;57.568;25.814;2023-03-25T10:58:19;99156.94;;;5.82;100.00
59650;BME280;46162;57.568;25.814;2023-03-25T11:00:48;99161.75;;;5.97;100.00
59650;BME280;46162;57.568;25.814;2023-03-25T11:03:20;99161.09;;;6.03;100.00
59650;BME280;46162;57.568;25.814;2023-03-25T11:05:50;99156.09;;;6.08;100.00
59650;BME280;46162;57.568;25.814;2023-03-25T11:08:20;99160.97;;;6.13;100.00
59650;BME280;46162;57.568;25.814;2023-03-25T11:10:52;99162.03;;;6.20;100.00
59650;BME280;46162;57.568;25.814;2023-03-25T11:13:25;99159.22;;;6.38;100.00
59650;BME280;46162;57.568;25.814;2023-03-25T11:15:57;99159.44;;;6.44;100.00
59650;BME280;46162;57.568;25.814;2023-03-25T11:18:32;99170.00;;;6.54;100.00
59650;BME280;46162;57.568;25.814;2023-03-25T11:21:06;99166.50;;;6.54;100.00
59650;BME280;46162;57.568;25.814;2023-03-25T11:23:36;99165.97;;;6.50;100.00
59650;BME280;46162;57.568;25.814;2023-03-25T11:26:12;99162.59;;;6.40;100.00
59650;BME280;46162;57.568;25.814;2023-03-25T11:28:45;99166.78;;;6.42;100.00
59650;BME280;46162;57.568;25.814;2023-03-25T11:31:15;99172.50;;;6.47;100.00
59650;BME280;46162;57.568;25.814;2023-03-25T11:34:03;99171.03;;;6.61;100.00
59650;BME280;46162;57.568;25.814;2023-03-25T11:36:34;99172.41;;;6.65;100.00
59650;BME280;46162;57.568;25.814;2023-03-25T11:39:13;99169.59;;;6.75;100.00
59650;BME280;46162;57.568;25.814;2023-03-25T11:41:46;99166.38;;;6.72;100.00
59650;BME280;46162;57.568;25.814;2023-03-25T11:44:21;99158.13;;;6.65;100.00
59650;BME280;46162;57.568;25.814;2023-03-25T11:46:53;99165.75;;;6.94;100.00
59650;BME280;46162;57.568;25.814;2023-03-25T11:49:25;99153.88;;;7.05;100.00
59650;BME280;46162;57.568;25.814;2023-03-25T11:51:56;99152.50;;;7.09;100.00
59650;BME280;46162;57.568;25.814;2023-03-25T11:54:27;99150.84;;;7.08;100.00
59650;BME280;46162;57.568;25.814;2023-03-25T11:56:56;99155.53;;;7.14;100.00
59650;BME280;46162;57.568;25.814;2023-03-25T11:59:26;99162.41;;;7.33;100.00
59650;BME280;46162;57.568;25.814;2023-03-25T12:02:02;99164.75;;;7.52;100.00
59650;BME280;46162;57.568;25.814;2023-03-25T12:04:32;99164.56;;;7.46;100.00
59650;BME280;46162;57.568;25.814;2023-03-25T12:07:06;99170.44;;;7.41;100.00
59650;BME280;46162;57.568;25.814;2023-03-25T12:09:35;99172.16;;;7.42;100.00
59650;BME280;46162;57.568;25.814;2023-03-25T12:12:18;99172.47;;;7.56;100.00
59650;BME280;46162;57.568;25.814;2023-03-25T12:14:58;99176.81;;;7.57;100.00
59650;BME280;46162;57.568;25.814;2023-03-25T12:17:40;99186.03;;;7.54;100.00
59650;BME280;46162;57.568;25.814;2023-03-25T12:20:22;99174.81;;;7.50;100.00
59650;BME280;46162;57.568;25.814;2023-03-25T12:23:00;99177.66;;;7.57;100.00
59650;BME280;46162;57.568;25.814;2023-03-25T12:25:47;99176.31;;;7.61;100.00
59650;BME280;46162;57.568;25.814;2023-03-25T12:31:38;99180.84;;;7.61;100.00
59650;BME280;46162;57.568;25.814;2023-03-25T12:34:16;99176.31;;;7.53;100.00
59650;BME280;46162;57.568;25.814;2023-03-25T12:36:56;99183.34;;;7.54;100.00
59650;BME280;46162;57.568;25.814;2023-03-25T12:39:39;99183.34;;;7.54;100.00
59650;BME280;46162;57.568;25.814;2023-03-25T12:42:20;99186.06;;;7.46;100.00
59650;BME280;46162;57.568;25.814;2023-03-25T12:45:08;99187.91;;;7.45;100.00
59650;BME280;46162;57.568;25.814;2023-03-25T12:47:42;99181.38;;;7.48;100.00
59650;BME280;46162;57.568;25.814;2023-03-25T12:50:31;99183.19;;;7.39;100.00
59650;BME280;46162;57.568;25.814;2023-03-25T12:53:20;99181.38;;;7.40;100.00
59650;BME280;46162;57.568;25.814;2023-03-25T12:55:58;99182.69;;;7.44;100.00
59650;BME280;46162;57.568;25.814;2023-03-25T12:58:47;99178.69;;;7.48;100.00
59650;BME280;46162;57.568;25.814;2023-03-25T13:01:25;99182.03;;;7.42;100.00
59650;BME280;46162;57.568;25.814;2023-03-25T13:04:08;99177.31;;;7.44;100.00
59650;BME280;46162;57.568;25.814;2023-03-25T13:06:44;99182.53;;;7.45;100.00
59650;BME280;46162;57.568;25.814;2023-03-25T13:09:21;99184.56;;;7.43;100.00
59650;BME280;46162;57.568;25.814;2023-03-25T13:11:54;99187.41;;;7.42;100.00
59650;BME280;46162;57.568;25.814;2023-03-25T13:14:27;99187.22;;;7.43;100.00
59650;BME280;46162;57.568;25.814;2023-03-25T13:17:01;99182.38;;;7.55;100.00
59650;BME280;46162;57.568;25.814;2023-03-25T13:19:32;99185.72;;;7.65;100.00
59650;BME280;46162;57.568;25.814;2023-03-25T13:22:16;99185.38;;;7.77;100.00
59650;BME280;46162;57.568;25.814;2023-03-25T13:24:50;99171.69;;;8.03;100.00
59650;BME280;46162;57.568;25.814;2023-03-25T13:27:21;99178.88;;;8.10;100.00
59650;BME280;46162;57.568;25.814;2023-03-25T13:29:53;99171.84;;;8.09;100.00
59650;BME280;46162;57.568;25.814;2023-03-25T13:32:27;99177.28;;;8.32;100.00
59650;BME280;46162;57.568;25.814;2023-03-25T13:35:01;99174.13;;;8.29;100.00